^^
B2 Weather Station Historical Data
Daily Summary for November 21, 2018 Units:  English    Metric   Both
Daily Weekly Monthly Yearly Custom
  High: Low: Average:
Temperature: 37.5 °F 28.0 °F 31.5 °F
Dew Point: 31.7 °F 25.2 °F 27.5 °F
Humidity: 91% 78% 85%
Wind Speed: 15.0mph 1.0mph 6.2mph
Wind Gust: 9.0mph - -
Wind- - SSE
Pressure: 30.42 in 30.17 in -
Precipitation: 0.00 in    
Historical Graphs
 
 
Tabular Data for November 21, 2018
Time Temperature Dew Point Pressure Wind Wind Speed Wind Gust Humidity Rainfall Rate (Hourly) solar
00:05 29.6 °F 25.6 °F 30.19 in WSW 11.5 mph 6.8 mph 85% 0.00 in 0.00 W/m2
00:10 29.6 °F 25.6 °F 30.19 in WSW 11.5 mph 7.7 mph 85% 0.00 in 0.00 W/m2
00:15 29.6 °F 25.6 °F 30.18 in North 11.5 mph 7.3 mph 85% 0.00 in 0.00 W/m2
00:20 29.6 °F 25.6 °F 30.18 in SW 8.1 mph 4.1 mph 85% 0.00 in 0.00 W/m2
00:25 29.6 °F 25.6 °F 30.18 in SW 10.4 mph 4.4 mph 85% 0.00 in 0.00 W/m2
00:30 29.7 °F 25.7 °F 30.18 in SSW 11.5 mph 7.2 mph 85% 0.00 in 0.00 W/m2
00:35 29.7 °F 25.7 °F 30.18 in SW 11.5 mph 3.9 mph 85% 0.00 in 0.00 W/m2
00:40 29.6 °F 25.6 °F 30.18 in North 12.0 mph 6.0 mph 85% 0.00 in 0.00 W/m2
00:45 29.7 °F 25.7 °F 30.18 in WSW 12.7 mph 6.5 mph 85% 0.00 in 0.00 W/m2
00:50 29.7 °F 25.7 °F 30.17 in SW 12.7 mph 5.2 mph 85% 0.00 in 0.00 W/m2
00:55 29.7 °F 25.7 °F 30.17 in SW 10.4 mph 6.6 mph 85% 0.00 in 0.00 W/m2
01:00 29.7 °F 25.7 °F 30.17 in SSW 11.5 mph 6.3 mph 85% 0.00 in 0.00 W/m2
01:04 29.6 °F 25.6 °F 30.17 in SSW 12.7 mph 5.6 mph 85% 0.00 in 0.00 W/m2
01:09 29.6 °F 25.6 °F 30.17 in SW 6.9 mph 5.2 mph 85% 0.00 in 0.00 W/m2
01:15 29.6 °F 25.6 °F 30.17 in SW 12.7 mph 9.0 mph 85% 0.00 in 0.00 W/m2
01:20 29.6 °F 25.6 °F 30.17 in SW 12.0 mph 7.0 mph 85% 0.00 in 0.00 W/m2
01:25 29.6 °F 25.6 °F 30.17 in SW 9.2 mph 5.9 mph 85% 0.00 in 0.00 W/m2
01:30 29.6 °F 25.6 °F 30.17 in WSW 15.0 mph 8.7 mph 85% 0.00 in 0.00 W/m2
01:35 29.6 °F 25.6 °F 30.17 in SW 10.4 mph 7.0 mph 85% 0.00 in 0.00 W/m2
01:40 29.6 °F 25.6 °F 30.17 in SW 8.0 mph 4.1 mph 85% 0.00 in 0.00 W/m2
01:45 29.6 °F 25.6 °F 30.17 in WSW 12.0 mph 6.1 mph 85% 0.00 in 0.00 W/m2
01:49 29.6 °F 25.6 °F 30.17 in SW 11.5 mph 5.7 mph 85% 0.00 in 0.00 W/m2
01:55 29.5 °F 25.5 °F 30.17 in SW 6.9 mph 4.2 mph 85% 0.00 in 0.00 W/m2
02:00 29.4 °F 25.4 °F 30.17 in SW 6.0 mph 4.3 mph 85% 0.00 in 0.00 W/m2
02:05 29.4 °F 25.4 °F 30.17 in SW 11.5 mph 4.7 mph 85% 0.00 in 0.00 W/m2
02:10 29.5 °F 25.8 °F 30.17 in SW 8.1 mph 5.5 mph 86% 0.00 in 0.00 W/m2
02:14 29.5 °F 25.8 °F 30.17 in North 11.5 mph 7.3 mph 86% 0.00 in 0.00 W/m2
02:19 29.7 °F 26.0 °F 30.17 in SW 10.4 mph 5.3 mph 86% 0.00 in 0.00 W/m2
02:24 29.7 °F 25.7 °F 30.17 in SW 11.5 mph 6.7 mph 85% 0.00 in 0.00 W/m2
02:30 29.7 °F 25.7 °F 30.17 in North 9.2 mph 5.6 mph 85% 0.00 in 0.00 W/m2
02:35 29.6 °F 25.6 °F 30.17 in SW 11.5 mph 5.4 mph 85% 0.00 in 0.00 W/m2
02:40 29.7 °F 25.7 °F 30.18 in WSW 6.9 mph 4.9 mph 85% 0.00 in 0.00 W/m2
02:45 29.6 °F 25.9 °F 30.17 in North 8.1 mph 5.1 mph 86% 0.00 in 0.00 W/m2
02:50 29.5 °F 25.8 °F 30.18 in SW 9.2 mph 5.5 mph 86% 0.00 in 0.00 W/m2
02:55 29.5 °F 25.8 °F 30.17 in SSW 5.8 mph 4.0 mph 86% 0.00 in 0.00 W/m2
03:00 29.5 °F 25.8 °F 30.17 in North 7.0 mph 4.6 mph 86% 0.00 in 0.00 W/m2
03:05 29.5 °F 25.8 °F 30.17 in SW 8.1 mph 4.5 mph 86% 0.00 in 0.00 W/m2
03:10 29.5 °F 25.8 °F 30.17 in SW 7.0 mph 4.8 mph 86% 0.00 in 0.00 W/m2
03:15 29.5 °F 25.8 °F 30.17 in SW 6.0 mph 3.6 mph 86% 0.00 in 0.00 W/m2
03:20 29.4 °F 25.7 °F 30.17 in SW 6.9 mph 3.5 mph 86% 0.00 in 0.00 W/m2
03:25 29.5 °F 25.8 °F 30.17 in WSW 10.4 mph 6.3 mph 86% 0.00 in 0.00 W/m2
03:30 29.5 °F 25.8 °F 30.17 in SW 9.2 mph 5.2 mph 86% 0.00 in 0.00 W/m2
03:35 29.6 °F 25.9 °F 30.18 in North 6.0 mph 6.0 mph 86% 0.00 in 0.00 W/m2
03:40 29.7 °F 26.0 °F 30.18 in SSW 6.0 mph 3.8 mph 86% 0.00 in 0.00 W/m2
03:45 29.6 °F 25.9 °F 30.18 in WSW 8.1 mph 4.4 mph 86% 0.00 in 0.00 W/m2
03:50 29.6 °F 25.9 °F 30.18 in SW 4.6 mph 2.5 mph 86% 0.00 in 0.00 W/m2
03:55 29.6 °F 25.9 °F 30.18 in SW 9.0 mph 5.8 mph 86% 0.00 in 0.00 W/m2
04:00 29.6 °F 25.9 °F 30.18 in WSW 9.2 mph 6.2 mph 86% 0.00 in 0.00 W/m2
04:05 29.6 °F 25.9 °F 30.18 in SW 8.0 mph 4.3 mph 86% 0.00 in 0.00 W/m2
04:10 29.6 °F 25.9 °F 30.18 in SW 8.1 mph 5.4 mph 86% 0.00 in 0.00 W/m2
04:15 29.5 °F 25.8 °F 30.18 in SW 9.2 mph 6.4 mph 86% 0.00 in 0.00 W/m2
04:20 29.4 °F 25.7 °F 30.17 in SW 5.8 mph 3.1 mph 86% 0.00 in 0.00 W/m2
04:25 29.4 °F 25.7 °F 30.18 in SW 8.0 mph 3.0 mph 86% 0.00 in 0.00 W/m2
04:30 29.3 °F 25.6 °F 30.18 in SW 6.9 mph 3.9 mph 86% 0.00 in 0.00 W/m2
04:34 29.2 °F 25.5 °F 30.18 in SW 5.8 mph 4.3 mph 86% 0.00 in 0.00 W/m2
04:40 29.2 °F 25.8 °F 30.18 in SW 6.9 mph 3.9 mph 87% 0.00 in 0.00 W/m2
04:45 29.2 °F 25.8 °F 30.18 in SW 4.6 mph 2.7 mph 87% 0.00 in 0.00 W/m2
04:50 29.1 °F 25.7 °F 30.19 in North 6.9 mph 5.3 mph 87% 0.00 in 0.00 W/m2
04:55 29.2 °F 25.8 °F 30.19 in WSW 5.8 mph 4.4 mph 87% 0.00 in 0.00 W/m2
04:59 29.2 °F 25.8 °F 30.19 in WSW 4.6 mph 4.0 mph 87% 0.00 in 0.00 W/m2
05:05 29.2 °F 25.8 °F 30.19 in SW 6.9 mph 4.2 mph 87% 0.00 in 0.00 W/m2
05:10 29.2 °F 25.8 °F 30.20 in WSW 8.1 mph 4.3 mph 87% 0.00 in 0.00 W/m2
05:15 29.2 °F 25.8 °F 30.20 in North 6.9 mph 4.2 mph 87% 0.00 in 0.00 W/m2
05:20 29.1 °F 25.7 °F 30.20 in WSW 4.0 mph 2.6 mph 87% 0.00 in 0.00 W/m2
05:25 29.0 °F 25.6 °F 30.19 in WSW 5.8 mph 4.0 mph 87% 0.00 in 0.00 W/m2
05:30 29.0 °F 25.6 °F 30.20 in WSW 3.5 mph 3.0 mph 87% 0.00 in 0.00 W/m2
05:35 29.0 °F 25.6 °F 30.20 in SW 4.0 mph 2.3 mph 87% 0.00 in 0.00 W/m2
05:40 29.0 °F 25.6 °F 30.20 in West 4.6 mph 2.8 mph 87% 0.00 in 0.00 W/m2
05:45 29.0 °F 25.6 °F 30.21 in WSW 2.3 mph 1.0 mph 87% 0.00 in 0.00 W/m2
05:50 28.9 °F 25.5 °F 30.21 in West 2.3 mph 0.9 mph 87% 0.00 in 0.00 W/m2
05:55 28.9 °F 25.8 °F 30.22 in West 2.3 mph 1.0 mph 88% 0.00 in 0.00 W/m2
06:00 28.9 °F 25.8 °F 30.22 in West 5.0 mph 2.3 mph 88% 0.00 in 0.00 W/m2
06:04 28.9 °F 25.8 °F 30.22 in WSW 5.8 mph 2.2 mph 88% 0.00 in 0.00 W/m2
06:09 28.9 °F 25.8 °F 30.23 in West 3.5 mph 2.8 mph 88% 0.00 in 0.00 W/m2
06:15 28.8 °F 25.7 °F 30.23 in WSW 6.9 mph 3.5 mph 88% 0.00 in 0.00 W/m2
06:20 28.7 °F 25.6 °F 30.23 in WSW 3.5 mph 1.6 mph 88% 0.00 in 0.00 W/m2
06:25 28.6 °F 25.5 °F 30.24 in WSW 4.0 mph 0.8 mph 88% 0.00 in 0.00 W/m2
06:30 28.5 °F 25.4 °F 30.24 in West 4.6 mph 2.2 mph 88% 0.00 in 0.00 W/m2
06:35 28.4 °F 25.3 °F 30.24 in North 5.0 mph 2.3 mph 88% 0.00 in 0.00 W/m2
06:40 28.3 °F 25.2 °F 30.24 in WSW 3.5 mph 1.6 mph 88% 0.00 in 0.00 W/m2
06:45 28.3 °F 25.5 °F 30.25 in WNW 3.0 mph 0.9 mph 89% 0.00 in 0.00 W/m2
06:50 28.3 °F 25.5 °F 30.25 in WSW 3.5 mph 1.4 mph 89% 0.00 in 5.00 W/m2
06:55 28.3 °F 25.5 °F 30.25 in West 4.0 mph 0.7 mph 89% 0.00 in 5.00 W/m2
07:00 28.5 °F 25.7 °F 30.25 in NW 3.5 mph 1.7 mph 89% 0.00 in 7.00 W/m2
07:05 28.8 °F 26.2 °F 30.25 in WNW 3.5 mph 1.6 mph 90% 0.00 in 11.00 W/m2
07:10 29.2 °F 26.4 °F 30.25 in WNW 3.5 mph 1.7 mph 89% 0.00 in 12.00 W/m2
07:15 29.4 °F 26.6 °F 30.25 in WNW 3.5 mph 1.9 mph 89% 0.00 in 16.00 W/m2
07:20 29.5 °F 26.7 °F 30.25 in WNW 3.5 mph 2.3 mph 89% 0.00 in 21.00 W/m2
07:25 29.6 °F 26.5 °F 30.25 in NW 3.5 mph 2.1 mph 88% 0.00 in 23.00 W/m2
07:30 29.7 °F 26.6 °F 30.26 in WNW 2.3 mph 0.7 mph 88% 0.00 in 32.00 W/m2
07:34 29.8 °F 26.7 °F 30.27 in WNW 7.0 mph 2.0 mph 88% 0.00 in 28.00 W/m2
07:40 29.9 °F 26.8 °F 30.27 in NW 3.5 mph 1.7 mph 88% 0.00 in 28.00 W/m2
07:45 30.0 °F 26.9 °F 30.27 in NW 4.6 mph 3.6 mph 88% 0.00 in 30.00 W/m2
07:50 30.1 °F 27.0 °F 30.28 in NW 4.6 mph 2.8 mph 88% 0.00 in 30.00 W/m2
07:55 30.2 °F 27.1 °F 30.28 in NNW 4.6 mph 3.0 mph 88% 0.00 in 33.00 W/m2
08:00 30.3 °F 27.2 °F 30.29 in NNW 4.6 mph 2.8 mph 88% 0.00 in 33.00 W/m2
08:05 30.3 °F 27.2 °F 30.29 in NW 3.5 mph 2.2 mph 88% 0.00 in 37.00 W/m2
08:10 30.4 °F 27.3 °F 30.29 in NW 3.5 mph 1.3 mph 88% 0.00 in 39.00 W/m2
08:15 30.5 °F 27.4 °F 30.30 in NNW 5.8 mph 4.2 mph 88% 0.00 in 40.00 W/m2
08:20 30.6 °F 27.2 °F 30.30 in NNW 3.5 mph 2.0 mph 87% 0.00 in 46.00 W/m2
08:25 30.6 °F 27.2 °F 30.30 in NW 3.5 mph 1.9 mph 87% 0.00 in 49.00 W/m2
08:29 30.7 °F 27.6 °F 30.30 in NNW 3.5 mph 1.8 mph 88% 0.00 in 53.00 W/m2
08:35 30.8 °F 27.4 °F 30.31 in NW 3.5 mph 2.1 mph 87% 0.00 in 58.00 W/m2
08:40 30.9 °F 27.5 °F 30.31 in NW 3.5 mph 2.3 mph 87% 0.00 in 63.00 W/m2
08:45 31.0 °F 27.6 °F 30.31 in NW 5.8 mph 3.1 mph 87% 0.00 in 69.00 W/m2
08:49 31.0 °F 27.6 °F 30.31 in NW 5.8 mph 4.3 mph 87% 0.00 in 74.00 W/m2
08:55 31.1 °F 27.7 °F 30.32 in WNW 4.0 mph 3.0 mph 87% 0.00 in 83.00 W/m2
08:59 31.2 °F 27.8 °F 30.31 in NW 3.5 mph 2.1 mph 87% 0.00 in 93.00 W/m2
09:05 31.4 °F 28.3 °F 30.31 in NNW 4.6 mph 2.6 mph 88% 0.00 in 100.00 W/m2
09:10 31.5 °F 28.1 °F 30.32 in NNW 4.0 mph 1.7 mph 87% 0.00 in 172.00 W/m2
09:14 32.0 °F 28.8 °F 30.31 in NW 3.5 mph 3.3 mph 88% 0.00 in 165.00 W/m2
09:20 32.2 °F 28.8 °F 30.31 in NNW 5.8 mph 3.6 mph 87% 0.00 in 174.00 W/m2
09:25 32.5 °F 29.1 °F 30.31 in North 4.0 mph 3.1 mph 87% 0.00 in 190.00 W/m2
09:30 32.8 °F 29.4 °F 30.32 in NNW 5.8 mph 4.0 mph 87% 0.00 in 188.00 W/m2
09:35 33.0 °F 29.3 °F 30.32 in NNW 5.0 mph 3.3 mph 86% 0.00 in 185.00 W/m2
09:40 33.1 °F 29.4 °F 30.32 in North 5.8 mph 3.1 mph 86% 0.00 in 171.00 W/m2
09:45 33.2 °F 29.2 °F 30.32 in NNE 3.5 mph 3.0 mph 85% 0.00 in 185.00 W/m2
09:50 33.5 °F 29.5 °F 30.32 in North 3.5 mph 2.2 mph 85% 0.00 in 179.00 W/m2
09:55 33.8 °F 29.8 °F 30.33 in NNE 4.0 mph 3.1 mph 85% 0.00 in 167.00 W/m2
10:00 34.1 °F 29.8 °F 30.33 in NNE 3.5 mph 2.5 mph 84% 0.00 in 149.00 W/m2
10:05 34.3 °F 30.0 °F 30.33 in NNE 4.6 mph 3.7 mph 84% 0.00 in 148.00 W/m2
10:10 34.5 °F 30.2 °F 30.33 in North 8.0 mph 4.8 mph 84% 0.00 in 153.00 W/m2
10:15 34.6 °F 30.0 °F 30.33 in NNE 6.9 mph 4.2 mph 83% 0.00 in 165.00 W/m2
10:20 34.7 °F 29.8 °F 30.33 in North 8.1 mph 5.2 mph 82% 0.00 in 202.00 W/m2
10:25 34.8 °F 29.9 °F 30.33 in NE 6.9 mph 4.6 mph 82% 0.00 in 236.00 W/m2
10:30 35.1 °F 30.2 °F 30.33 in North 5.8 mph 3.9 mph 82% 0.00 in 227.00 W/m2
10:31 35.1 °F 30.2 °F 30.33 in NNE 5.8 mph 4.8 mph 82% 0.00 in 225.00 W/m2
10:39 35.3 °F 30.1 °F 30.33 in North 5.8 mph 5.8 mph 81% 0.00 in 197.00 W/m2
10:42 35.3 °F 30.1 °F 30.33 in NNW 5.8 mph 3.7 mph 81% 0.00 in 207.00 W/m2
10:49 35.4 °F 30.5 °F 30.33 in NNE 4.6 mph 3.3 mph 82% 0.00 in 185.00 W/m2
10:54 35.7 °F 30.4 °F 30.33 in North 5.0 mph 2.4 mph 81% 0.00 in 183.00 W/m2
10:59 35.9 °F 30.3 °F 30.34 in NNE 5.0 mph 3.4 mph 80% 0.00 in 176.00 W/m2
11:04 36.0 °F 30.7 °F 30.34 in North 5.8 mph 4.1 mph 81% 0.00 in 176.00 W/m2
11:09 36.0 °F 30.4 °F 30.34 in North 5.0 mph 3.9 mph 80% 0.00 in 193.00 W/m2
11:14 36.0 °F 30.4 °F 30.34 in North 5.8 mph 3.9 mph 80% 0.00 in 190.00 W/m2
11:19 36.2 °F 30.6 °F 30.33 in North 4.6 mph 3.5 mph 80% 0.00 in 221.00 W/m2
11:24 36.5 °F 30.9 °F 30.33 in North 3.5 mph 1.9 mph 80% 0.00 in 204.00 W/m2
11:29 36.4 °F 30.5 °F 30.33 in North 4.6 mph 4.0 mph 79% 0.00 in 192.00 W/m2
11:34 36.5 °F 30.6 °F 30.33 in NNE 5.8 mph 2.2 mph 79% 0.00 in 227.00 W/m2
11:39 36.7 °F 30.8 °F 30.32 in NNE 6.9 mph 5.1 mph 79% 0.00 in 294.00 W/m2
11:44 36.9 °F 31.0 °F 30.33 in NNE 6.9 mph 5.7 mph 79% 0.00 in 229.00 W/m2
11:49 37.0 °F 31.1 °F 30.33 in NNE 6.9 mph 4.7 mph 79% 0.00 in 220.00 W/m2
11:54 37.0 °F 30.8 °F 30.32 in NNE 6.9 mph 4.7 mph 78% 0.00 in 223.00 W/m2
11:59 37.0 °F 30.8 °F 30.32 in North 6.9 mph 4.1 mph 78% 0.00 in 216.00 W/m2
12:04 37.1 °F 30.9 °F 30.33 in NE 6.9 mph 4.4 mph 78% 0.00 in 200.00 W/m2
12:09 37.2 °F 31.0 °F 30.33 in North 5.0 mph 4.5 mph 78% 0.00 in 179.00 W/m2
12:14 37.2 °F 31.3 °F 30.32 in NNE 6.0 mph 3.9 mph 79% 0.00 in 172.00 W/m2
12:19 37.1 °F 30.9 °F 30.33 in NNE 4.0 mph 4.1 mph 78% 0.00 in 192.00 W/m2
12:24 37.2 °F 31.0 °F 30.33 in NNE 6.0 mph 4.2 mph 78% 0.00 in 181.00 W/m2
12:29 37.3 °F 31.1 °F 30.33 in NNE 5.8 mph 3.4 mph 78% 0.00 in 163.00 W/m2
12:34 37.4 °F 31.5 °F 30.33 in NE 5.0 mph 4.9 mph 79% 0.00 in 141.00 W/m2
12:39 37.5 °F 31.6 °F 30.33 in North 8.1 mph 5.5 mph 79% 0.00 in 134.00 W/m2
12:44 37.3 °F 31.4 °F 30.33 in NE 8.1 mph 5.7 mph 79% 0.00 in 134.00 W/m2
12:49 37.4 °F 31.5 °F 30.33 in NE 8.1 mph 5.7 mph 79% 0.00 in 158.00 W/m2
12:54 37.4 °F 31.5 °F 30.33 in NE 8.1 mph 5.7 mph 79% 0.00 in 127.00 W/m2
12:59 37.3 °F 31.4 °F 30.34 in NNE 6.9 mph 4.6 mph 79% 0.00 in 118.00 W/m2
13:04 37.3 °F 31.1 °F 30.34 in NE 10.4 mph 6.8 mph 78% 0.00 in 128.00 W/m2
13:09 37.3 °F 31.4 °F 30.34 in NE 8.1 mph 6.3 mph 79% 0.00 in 113.00 W/m2
13:14 37.3 °F 31.1 °F 30.34 in ENE 8.0 mph 5.4 mph 78% 0.00 in 118.00 W/m2
13:19 37.3 °F 31.4 °F 30.34 in NNE 6.9 mph 6.5 mph 79% 0.00 in 114.00 W/m2
13:24 37.2 °F 31.6 °F 30.34 in ENE 8.1 mph 5.7 mph 80% 0.00 in 104.00 W/m2
13:29 37.0 °F 31.4 °F 30.34 in NE 8.1 mph 6.6 mph 80% 0.00 in 118.00 W/m2
13:31 37.0 °F 31.7 °F 30.34 in NNE 10.0 mph 6.3 mph 81% 0.00 in 118.00 W/m2
14:39 35.6 °F 29.7 °F 30.35 in NE 9.2 mph 7.3 mph 79% 0.00 in 84.00 W/m2
14:44 35.5 °F 29.3 °F 30.35 in NE 11.5 mph 7.6 mph 78% 0.00 in 81.00 W/m2
14:49 35.5 °F 29.3 °F 30.35 in North 9.2 mph 6.6 mph 78% 0.00 in 69.00 W/m2
14:54 35.4 °F 29.2 °F 30.35 in NNE 8.1 mph 6.0 mph 78% 0.00 in 58.00 W/m2
14:59 35.3 °F 29.1 °F 30.36 in North 10.0 mph 6.6 mph 78% 0.00 in 47.00 W/m2
15:04 35.2 °F 29.0 °F 30.36 in NE 6.9 mph 5.4 mph 78% 0.00 in 47.00 W/m2
15:09 35.2 °F 29.0 °F 30.36 in NE 6.9 mph 5.3 mph 78% 0.00 in 47.00 W/m2
15:14 35.2 °F 29.0 °F 30.36 in NNE 8.1 mph 4.4 mph 78% 0.00 in 49.00 W/m2
15:19 35.3 °F 29.4 °F 30.36 in NE 5.8 mph 4.1 mph 79% 0.00 in 42.00 W/m2
15:24 35.3 °F 29.4 °F 30.36 in NE 7.0 mph 4.7 mph 79% 0.00 in 51.00 W/m2
15:29 35.3 °F 29.4 °F 30.36 in NE 8.1 mph 5.7 mph 79% 0.00 in 40.00 W/m2
15:33 35.2 °F 29.0 °F 30.36 in NNE 9.2 mph 7.0 mph 78% 0.00 in 40.00 W/m2
15:44 34.8 °F 29.0 °F 30.37 in NNE 6.9 mph 4.2 mph 79% 0.00 in 21.00 W/m2
15:49 34.7 °F 28.9 °F 30.37 in NNE 5.8 mph 4.7 mph 79% 0.00 in 28.00 W/m2
15:54 34.4 °F 28.6 °F 30.37 in NE 5.0 mph 4.6 mph 79% 0.00 in 25.00 W/m2
15:59 34.1 °F 28.6 °F 30.37 in NE 4.0 mph 3.7 mph 80% 0.00 in 21.00 W/m2
16:04 33.8 °F 28.3 °F 30.38 in NE 3.5 mph 3.0 mph 80% 0.00 in 23.00 W/m2
16:09 33.4 °F 28.2 °F 30.38 in NE 3.5 mph 2.4 mph 81% 0.00 in 21.00 W/m2
16:14 33.2 °F 28.0 °F 30.38 in NE 2.3 mph 1.2 mph 81% 0.00 in 18.00 W/m2
16:19 33.0 °F 27.8 °F 30.38 in NE 2.3 mph 1.2 mph 81% 0.00 in 14.00 W/m2
16:24 32.8 °F 27.9 °F 30.38 in NE 1.0 mph 0.9 mph 82% 0.00 in 9.00 W/m2
16:29 32.6 °F 27.7 °F 30.38 in NE 1.2 mph 0.2 mph 82% 0.00 in 5.00 W/m2
16:34 32.4 °F 27.8 °F 30.38 in NE 3.5 mph 1.5 mph 83% 0.00 in 0.00 W/m2
16:39 32.2 °F 27.6 °F 30.38 in NE 3.5 mph 1.8 mph 83% 0.00 in 0.00 W/m2
16:44 32.0 °F 27.4 °F 30.38 in NE 3.5 mph 1.8 mph 83% 0.00 in 0.00 W/m2
16:49 31.8 °F 27.2 °F 30.38 in NE 2.3 mph 1.5 mph 83% 0.00 in 0.00 W/m2
16:54 31.6 °F 27.3 °F 30.39 in NNE 5.0 mph 4.8 mph 84% 0.00 in 0.00 W/m2
16:59 31.6 °F 27.6 °F 30.39 in NE 6.0 mph 4.2 mph 85% 0.00 in 0.00 W/m2
17:04 31.6 °F 27.6 °F 30.39 in NE 6.9 mph 4.5 mph 85% 0.00 in 0.00 W/m2
17:09 31.6 °F 27.6 °F 30.39 in NE 5.8 mph 5.4 mph 85% 0.00 in 0.00 W/m2
17:14 31.5 °F 27.8 °F 30.39 in NE 7.0 mph 5.3 mph 86% 0.00 in 0.00 W/m2
17:19 31.6 °F 28.2 °F 30.39 in NE 8.1 mph 5.6 mph 87% 0.00 in 0.00 W/m2
17:24 31.7 °F 28.3 °F 30.40 in NE 10.4 mph 7.7 mph 87% 0.00 in 0.00 W/m2
17:29 31.9 °F 28.5 °F 30.40 in NE 10.4 mph 5.5 mph 87% 0.00 in 0.00 W/m2
17:34 31.9 °F 28.5 °F 30.40 in NE 7.0 mph 6.7 mph 87% 0.00 in 0.00 W/m2
17:39 31.7 °F 28.0 °F 30.40 in NE 6.0 mph 5.7 mph 86% 0.00 in 0.00 W/m2
17:44 31.6 °F 27.9 °F 30.40 in NNE 8.1 mph 6.0 mph 86% 0.00 in 0.00 W/m2
17:49 31.6 °F 27.9 °F 30.40 in NE 8.1 mph 5.1 mph 86% 0.00 in 0.00 W/m2
17:54 31.5 °F 27.8 °F 30.40 in NE 8.1 mph 5.2 mph 86% 0.00 in 0.00 W/m2
17:59 31.5 °F 27.8 °F 30.40 in ENE 6.9 mph 5.1 mph 86% 0.00 in 0.00 W/m2
18:04 31.5 °F 27.8 °F 30.40 in NNE 6.9 mph 4.1 mph 86% 0.00 in 0.00 W/m2
18:09 31.5 °F 28.1 °F 30.41 in NE 6.9 mph 5.3 mph 87% 0.00 in 0.00 W/m2
18:14 31.5 °F 28.1 °F 30.41 in ENE 7.0 mph 5.9 mph 87% 0.00 in 0.00 W/m2
18:19 31.6 °F 28.2 °F 30.41 in NE 5.8 mph 3.6 mph 87% 0.00 in 0.00 W/m2
18:24 31.6 °F 28.2 °F 30.41 in NE 8.1 mph 5.4 mph 87% 0.00 in 0.00 W/m2
18:29 31.7 °F 28.3 °F 30.41 in NE 8.1 mph 5.5 mph 87% 0.00 in 0.00 W/m2
18:34 31.7 °F 28.3 °F 30.41 in NE 5.8 mph 3.9 mph 87% 0.00 in 0.00 W/m2
18:39 31.8 °F 28.4 °F 30.41 in ENE 7.0 mph 5.1 mph 87% 0.00 in 0.00 W/m2
18:44 31.7 °F 28.0 °F 30.41 in NE 8.1 mph 4.7 mph 86% 0.00 in 0.00 W/m2
18:49 31.8 °F 28.1 °F 30.41 in NE 6.9 mph 6.7 mph 86% 0.00 in 0.00 W/m2
18:54 31.8 °F 28.1 °F 30.41 in NE 6.9 mph 5.3 mph 86% 0.00 in 0.00 W/m2
18:59 31.8 °F 28.1 °F 30.42 in NE 8.1 mph 5.4 mph 86% 0.00 in 0.00 W/m2
19:04 31.8 °F 28.1 °F 30.42 in ENE 5.8 mph 5.0 mph 86% 0.00 in 0.00 W/m2
19:09 31.7 °F 27.7 °F 30.41 in NE 7.0 mph 5.5 mph 85% 0.00 in 0.00 W/m2
19:14 31.7 °F 27.7 °F 30.42 in ENE 8.1 mph 4.1 mph 85% 0.00 in 0.00 W/m2
19:19 31.7 °F 27.7 °F 30.41 in NE 9.2 mph 5.9 mph 85% 0.00 in 0.00 W/m2
19:24 31.6 °F 27.6 °F 30.42 in NE 6.9 mph 4.3 mph 85% 0.00 in 0.00 W/m2
19:29 31.5 °F 27.5 °F 30.41 in NE 7.0 mph 5.1 mph 85% 0.00 in 0.00 W/m2
19:34 31.4 °F 27.4 °F 30.41 in ENE 7.0 mph 5.1 mph 85% 0.00 in 0.00 W/m2
19:39 31.2 °F 27.2 °F 30.42 in NE 9.2 mph 6.2 mph 85% 0.00 in 0.00 W/m2
19:44 31.0 °F 27.3 °F 30.41 in NE 6.0 mph 4.9 mph 86% 0.00 in 0.00 W/m2
19:49 30.9 °F 27.2 °F 30.42 in ENE 6.9 mph 5.1 mph 86% 0.00 in 0.00 W/m2
19:54 30.9 °F 27.5 °F 30.42 in ENE 8.1 mph 4.0 mph 87% 0.00 in 0.00 W/m2
19:59 30.9 °F 27.5 °F 30.41 in NE 6.9 mph 4.7 mph 87% 0.00 in 0.00 W/m2
20:04 30.9 °F 27.5 °F 30.41 in ENE 6.9 mph 3.9 mph 87% 0.00 in 0.00 W/m2
20:09 30.8 °F 27.4 °F 30.41 in ENE 5.0 mph 4.3 mph 87% 0.00 in 0.00 W/m2
20:14 30.8 °F 27.7 °F 30.41 in NE 6.9 mph 4.5 mph 88% 0.00 in 0.00 W/m2
20:19 30.8 °F 27.7 °F 30.41 in NE 6.9 mph 3.9 mph 88% 0.00 in 0.00 W/m2
20:24 30.9 °F 27.8 °F 30.41 in NE 6.9 mph 4.1 mph 88% 0.00 in 0.00 W/m2
20:29 30.8 °F 27.7 °F 30.42 in NE 6.9 mph 5.4 mph 88% 0.00 in 0.00 W/m2
20:34 30.8 °F 27.7 °F 30.42 in NE 4.6 mph 3.6 mph 88% 0.00 in 0.00 W/m2
20:39 30.7 °F 27.6 °F 30.42 in ENE 4.6 mph 3.8 mph 88% 0.00 in 0.00 W/m2
20:44 30.5 °F 27.4 °F 30.42 in NE 4.6 mph 4.1 mph 88% 0.00 in 0.00 W/m2
20:49 30.4 °F 27.3 °F 30.42 in ENE 4.6 mph 4.0 mph 88% 0.00 in 0.00 W/m2
20:54 30.3 °F 27.2 °F 30.42 in NE 3.5 mph 2.9 mph 88% 0.00 in 0.00 W/m2
20:59 30.2 °F 27.3 °F 30.42 in ENE 3.5 mph 2.9 mph 89% 0.00 in 0.00 W/m2
21:04 30.1 °F 27.3 °F 30.42 in ENE 4.0 mph 2.3 mph 89% 0.00 in 0.00 W/m2
21:09 30.1 °F 27.3 °F 30.42 in NE 3.5 mph 2.5 mph 89% 0.00 in 0.00 W/m2
21:14 30.0 °F 27.2 °F 30.42 in ENE 4.0 mph 3.2 mph 89% 0.00 in 0.00 W/m2
21:19 29.9 °F 27.1 °F 30.42 in NE 4.0 mph 2.8 mph 89% 0.00 in 0.00 W/m2
21:24 29.9 °F 27.1 °F 30.42 in NE 3.5 mph 2.6 mph 89% 0.00 in 0.00 W/m2
21:29 29.9 °F 27.1 °F 30.42 in NE 3.5 mph 2.4 mph 89% 0.00 in 0.00 W/m2
21:34 30.0 °F 27.2 °F 30.42 in NE 3.5 mph 1.5 mph 89% 0.00 in 0.00 W/m2
21:39 30.0 °F 27.2 °F 30.42 in North 3.5 mph 1.6 mph 89% 0.00 in 0.00 W/m2
21:44 29.9 °F 27.1 °F 30.42 in NE 3.5 mph 1.6 mph 89% 0.00 in 0.00 W/m2
21:49 29.9 °F 27.1 °F 30.42 in NE 3.5 mph 1.9 mph 89% 0.00 in 0.00 W/m2
21:54 29.8 °F 27.0 °F 30.42 in NE 3.0 mph 2.0 mph 89% 0.00 in 0.00 W/m2
21:59 29.7 °F 26.9 °F 30.42 in NE 3.5 mph 2.5 mph 89% 0.00 in 0.00 W/m2
22:04 29.6 °F 26.8 °F 30.42 in NE 3.5 mph 1.9 mph 89% 0.00 in 0.00 W/m2
22:09 29.5 °F 26.7 °F 30.42 in NE 3.5 mph 2.3 mph 89% 0.00 in 0.00 W/m2
22:14 29.4 °F 26.6 °F 30.42 in ENE 2.3 mph 2.0 mph 89% 0.00 in 0.00 W/m2
22:19 29.3 °F 26.5 °F 30.42 in ENE 3.5 mph 1.9 mph 89% 0.00 in 0.00 W/m2
22:24 29.1 °F 26.3 °F 30.42 in ENE 3.5 mph 2.0 mph 89% 0.00 in 0.00 W/m2
22:29 29.0 °F 26.2 °F 30.42 in ENE 2.3 mph 1.6 mph 89% 0.00 in 0.00 W/m2
22:34 28.9 °F 26.3 °F 30.42 in ENE 2.3 mph 1.4 mph 90% 0.00 in 0.00 W/m2
22:39 28.8 °F 26.2 °F 30.42 in ENE 2.3 mph 1.9 mph 90% 0.00 in 0.00 W/m2
22:44 28.7 °F 26.1 °F 30.42 in ENE 2.3 mph 1.7 mph 90% 0.00 in 0.00 W/m2
22:49 28.7 °F 26.1 °F 30.41 in ENE 3.5 mph 1.9 mph 90% 0.00 in 0.00 W/m2
22:54 28.5 °F 25.7 °F 30.42 in ENE 2.3 mph 1.5 mph 89% 0.00 in 0.00 W/m2
22:59 28.4 °F 25.8 °F 30.42 in ENE 3.5 mph 1.7 mph 90% 0.00 in 0.00 W/m2
23:04 28.4 °F 25.8 °F 30.42 in ENE 3.5 mph 2.3 mph 90% 0.00 in 0.00 W/m2
23:09 28.3 °F 25.7 °F 30.41 in ENE 3.5 mph 2.0 mph 90% 0.00 in 0.00 W/m2
23:14 28.3 °F 25.7 °F 30.42 in ENE 2.3 mph 1.5 mph 90% 0.00 in 0.00 W/m2
23:19 28.2 °F 25.6 °F 30.42 in ENE 3.5 mph 1.6 mph 90% 0.00 in 0.00 W/m2
23:24 28.1 °F 25.5 °F 30.42 in ENE 3.5 mph 3.0 mph 90% 0.00 in 0.00 W/m2
23:29 28.1 °F 25.5 °F 30.42 in ENE 4.6 mph 3.3 mph 90% 0.00 in 0.00 W/m2
23:34 28.2 °F 25.9 °F 30.42 in ENE 4.6 mph 4.0 mph 91% 0.00 in 0.00 W/m2
23:39 28.2 °F 25.9 °F 30.42 in ENE 4.6 mph 4.2 mph 91% 0.00 in 0.00 W/m2
23:44 28.2 °F 25.9 °F 30.42 in ENE 4.6 mph 3.7 mph 91% 0.00 in 0.00 W/m2
23:49 28.2 °F 25.9 °F 30.42 in ENE 4.6 mph 3.7 mph 91% 0.00 in 0.00 W/m2
23:54 28.1 °F 25.8 °F 30.42 in ENE 3.5 mph 2.7 mph 91% 0.00 in 0.00 W/m2
23:59 28.0 °F 25.4 °F 30.42 in ENE 4.0 mph 2.1 mph 90% 0.00 in 0.00 W/m2
Bourbonnais, Illinois, USA
Compliments of Weather Underground - 4 mb